Share

Severy, KS

Chanute Martin Johnson (KCNU) Elev 1001 ft | 37.67 °N, 95.48 °W | Change Station

Current weather conditions updated 24 minutes ago

Clear
Clear
45 °F
Feels Like 41 °F
N
8
Wind Variable Wind from SE
Sunrise 6:44 AM
Sunset 8:04 PM
Moon Waning Gibbous

Today is forecast to be Warmer than yesterday.

Pressure 30.13 in
Visibility 9.0 miles
Clouds Clear
Windchill 41 °F
Dew Point 40 °F
Humidity 82%
Rainfall 0.00 in
Snow Depth Not available.
UV 0 out of 16
Pollen 10.60 out of 12
Air Quality Not available.
Flu Activity No Activity
METAR KCNU 190952Z AUTO 13007KT 9SM CLR 07/04 A3013 RMK AO2 SLP201 T00720044

More Conditions Fewer Conditions

Pressure 30.13 in
Visibility 9.0 miles
Clouds Clear
Windchill 41 °F
Dew Point 40 °F
Humidity 82%
Rainfall 0.00 in
Snow Depth Not available.
UV 0 out of 16
Pollen 10.60 out of 12
Air Quality Not available.
Flu Activity No Activity
METAR KCNU 190952Z AUTO 13007KT 9SM CLR 07/04 A3013 RMK AO2 SLP201 T00720044

More Conditions Fewer Conditions

10-Day Weather Forecast

Almanac

Astronomy

Apr. 19, 2014 Rise Set
Actual Time 6:44 AM CDT 8:04 PM CDT
Civil Twilight 6:17 AM CDT 8:31 PM CDT
Nautical Twilight 5:44 AM CDT 9:04 PM CDT
Astronomical Twilight 5:10 AM CDT 9:38 PM CDT
Moon No Moon Rise 10:06 AM CDT
Length of Visible Light 14h 14m
Length of Day
13h 19m
Tomorrow will be 2m 16s longer.
Waning Gibbous, 81% of the Moon is Illuminated
Today
Waning Gibbous
Apr 22
Last Quarter
Apr 29
New
May 6
First Quarter
May 14
Full

Today's Extremes

State Highs State Lows

Community

  • Bleeding Hearts
    Bleeding Hearts
  • Sunset Silhouettes
    Sunset Silhouettes
  • FL sunset Perico Isle
    FL sunset Perico Isle
  • Cloudy spring view
    Cloudy spring view
  • Old barn
    Old barn

WunderPhotos

Upload Photos

1,702,676 photos uploaded!

WunderBlogs® & News

Nearby

Snow Depth

Station Depth Elevation
No new snow has been reported.

Coastal Water Temperatures

Place Temperature
No Stations Reporting

Earthquake Activity

City Distance Mag. Time & Date
Perry, Oklahoma 109 miles 2.5 1:42 PM CDT
2014-04-14
Perry, Oklahoma 110 miles 2.6 1:20 PM CDT
2014-04-14
Guthrie, Oklahoma 146 miles 3.0 8:17 AM CDT
2014-04-14
Guthrie, Oklahoma 146 miles 3.7 3:02 PM CDT
2014-04-13
Minimum magnitude displayed is 2.5.

Nearby Weather Stations

Station Location Temp. Windchill Dew Point Humidity Wind Precip. Elev Updated Type
HADS FALL RIVER LAKE NEAR FALL RIVER KS, Fall River, KS 46 °F 44 °F 37 °F 70% SSE  at  4 mph 0.00 in / hr 1020 ft 4:00 AM CDT MADIS

Show More Stations Show Fewer Stations

What do you think?

We're not finished. Please let us know what you like, what you don't like, and what you are still missing.